Time;durP1;ratioP1;P1;durP2;ratioP2;P2;SDS_P1;SDS_P2;PMS_P1;PMS_P2;Temp;Humidity;BMP_temperature;BMP_pressure;BME280_temperature;BME280_humidity;BME280_pressure;Samples;Min_cycle;Max_cycle;Signal;HPM_P1;HPM_P2
2023/07/05 00:01:14;;;;;;;9.70;6.50;;;17.60;99.90;;;;;;5069762;28;20197;-69
2023/07/05 00:03:40;;;;;;;7.57;5.50;;;17.60;99.90;;;;;;5068703;28;20196;-69
2023/07/05 00:06:06;;;;;;;9.07;6.00;;;17.60;99.90;;;;;;5069820;28;20981;-69
2023/07/05 00:08:33;;;;;;;7.10;5.80;;;17.70;99.90;;;;;;5076930;28;20786;-69
2023/07/05 00:11:07;;;;;;;5.60;5.03;;;17.70;99.90;;;;;;5089899;28;20426;-69
2023/07/05 00:13:34;;;;;;;5.07;4.30;;;17.70;99.90;;;;;;5087491;28;20420;-69
2023/07/05 00:16:00;;;;;;;7.87;3.90;;;17.70;99.90;;;;;;5089524;28;20454;-69
2023/07/05 00:18:27;;;;;;;6.03;3.90;;;17.70;99.90;;;;;;5089790;28;20403;-69
2023/07/05 00:20:58;;;;;;;5.07;4.10;;;17.80;99.90;;;;;;5089615;28;20422;-69
2023/07/05 00:23:24;;;;;;;4.87;3.80;;;17.70;99.90;;;;;;5088695;28;20790;-69
2023/07/05 00:25:49;;;;;;;6.83;4.37;;;17.80;99.90;;;;;;5089494;28;20475;-69
2023/07/05 00:28:15;;;;;;;6.73;4.33;;;17.70;99.90;;;;;;5069275;28;20681;-69
2023/07/05 00:30:45;;;;;;;5.27;3.90;;;17.70;99.90;;;;;;5069207;28;20678;-69
2023/07/05 00:33:11;;;;;;;7.83;3.93;;;17.70;99.90;;;;;;5068198;28;20169;-69
2023/07/05 00:35:37;;;;;;;6.20;3.80;;;17.80;99.90;;;;;;5069046;28;20454;-69
2023/07/05 00:38:02;;;;;;;4.80;4.40;;;17.80;99.90;;;;;;5069133;28;20237;-69
2023/07/05 00:40:28;;;;;;;5.27;3.67;;;17.80;99.90;;;;;;5067694;28;20705;-69
2023/07/05 00:42:54;;;;;;;6.73;4.13;;;17.80;99.90;;;;;;5068490;28;20266;-69
2023/07/05 00:45:19;;;;;;;4.10;3.13;;;17.80;99.90;;;;;;5068785;28;20534;-70
2023/07/05 00:47:46;;;;;;;3.90;3.60;;;17.70;99.90;;;;;;5068966;28;20177;-69
2023/07/05 00:50:25;;;;;;;5.97;4.27;;;17.80;99.90;;;;;;5069009;28;20284;-69
2023/07/05 00:52:52;;;;;;;5.03;3.60;;;17.70;99.90;;;;;;5068222;28;20765;-69
2023/07/05 00:55:19;;;;;;;9.93;4.07;;;17.70;99.90;;;;;;5068572;28;20958;-69
2023/07/05 00:57:45;;;;;;;4.13;3.10;;;17.70;99.90;;;;;;5067191;28;20416;-69
2023/07/05 01:00:15;;;;;;;7.33;3.90;;;17.60;99.90;;;;;;5069008;28;20419;-69
2023/07/05 01:02:45;;;;;;;4.03;3.50;;;17.60;99.90;;;;;;5068168;28;20489;-69
2023/07/05 01:05:11;;;;;;;6.03;4.03;;;17.50;99.90;;;;;;5073859;28;20442;-69
2023/07/05 01:07:37;;;;;;;6.43;3.47;;;17.50;99.90;;;;;;5084835;28;20423;-69
2023/07/05 01:10:04;;;;;;;4.00;3.20;;;17.40;99.90;;;;;;5079498;28;20434;-69
2023/07/05 01:13:12;;;;;;;3.30;3.00;;;17.50;99.90;;;;;;5078594;28;20439;-69
2023/07/05 01:15:52;;;;;;;5.23;3.60;;;17.50;99.90;;;;;;5085706;28;20457;-69
2023/07/05 01:18:31;;;;;;;5.00;3.10;;;17.50;99.90;;;;;;5077612;28;20419;-69
2023/07/05 01:21:10;;;;;;;4.53;3.20;;;17.50;99.90;;;;;;5085921;28;20477;-69
2023/07/05 01:23:55;;;;;;;5.03;3.67;;;17.50;99.90;;;;;;5091988;28;20421;-69
2023/07/05 01:26:50;;;;;;;5.63;3.67;;;17.50;99.90;;;;;;5095435;28;20414;-69
2023/07/05 01:29:37;;;;;;;4.40;4.00;;;17.50;99.90;;;;;;5091563;28;20449;-69
2023/07/05 01:32:08;;;;;;;4.10;3.70;;;17.50;99.90;;;;;;5080154;28;20677;-69
2023/07/05 01:35:03;;;;;;;4.03;3.63;;;17.50;99.90;;;;;;5087577;28;20407;-69
2023/07/05 01:37:40;;;;;;;3.90;3.50;;;17.40;99.90;;;;;;5084118;28;20939;-69
2023/07/05 01:40:38;;;;;;;3.93;3.57;;;17.30;99.90;;;;;;5082790;28;20540;-69
2023/07/05 01:43:10;;;;;;;6.00;3.20;;;17.30;99.90;;;;;;5083399;28;20413;-69
2023/07/05 01:45:42;;;;;;;3.47;3.00;;;17.30;99.90;;;;;;5086354;28;20403;-69
2023/07/05 01:48:32;;;;;;;4.93;4.20;;;17.30;99.90;;;;;;5088662;28;20414;-69
2023/07/05 01:51:05;;;;;;;3.90;3.13;;;17.40;99.90;;;;;;5084866;28;20417;-69
2023/07/05 01:53:44;;;;;;;3.87;3.47;;;17.30;99.90;;;;;;5087666;28;20496;-69
2023/07/05 01:56:21;;;;;;;9.77;4.00;;;17.30;99.90;;;;;;5091311;28;20942;-69
2023/07/05 01:58:52;;;;;;;4.40;3.37;;;17.30;99.90;;;;;;5084666;28;20736;-68
2023/07/05 02:01:20;;;;;;;4.17;3.20;;;17.30;99.90;;;;;;5089795;28;20533;-68
2023/07/05 02:03:49;;;;;;;8.07;3.03;;;17.30;99.90;;;;;;5082478;28;20429;-68
2023/07/05 02:06:17;;;;;;;4.57;3.07;;;17.30;99.90;;;;;;5083697;28;20497;-68
2023/07/05 02:08:45;;;;;;;4.30;3.20;;;17.30;99.90;;;;;;5094881;28;20420;-68
2023/07/05 02:11:11;;;;;;;3.73;3.10;;;17.30;99.90;;;;;;5095072;28;20486;-68
2023/07/05 02:13:37;;;;;;;4.60;2.97;;;17.30;99.90;;;;;;5094120;28;20903;-68
2023/07/05 02:16:03;;;;;;;4.03;2.90;;;17.30;99.90;;;;;;5095014;28;20212;-68
2023/07/05 02:18:29;;;;;;;4.17;2.90;;;17.30;99.90;;;;;;5093768;28;20933;-69
2023/07/05 02:20:55;;;;;;;4.23;3.57;;;17.40;99.90;;;;;;5095050;28;20188;-68
2023/07/05 02:23:22;;;;;;;3.10;2.80;;;17.40;99.90;;;;;;5093830;28;20489;-69
2023/07/05 02:25:50;;;;;;;5.77;3.60;;;17.40;99.90;;;;;;5095188;28;20410;-69
2023/07/05 02:28:16;;;;;;;3.33;2.83;;;17.40;99.90;;;;;;5074541;28;20411;-68
2023/07/05 02:30:42;;;;;;;3.23;2.90;;;17.30;99.90;;;;;;5073069;28;21008;-68
2023/07/05 02:33:07;;;;;;;3.70;3.07;;;17.40;99.90;;;;;;5070189;28;20522;-68
2023/07/05 02:35:38;;;;;;;5.10;3.20;;;17.40;99.90;;;;;;5071531;28;20212;-68
2023/07/05 02:38:05;;;;;;;3.63;3.33;;;17.40;99.90;;;;;;5071374;28;20185;-68
2023/07/05 02:40:30;;;;;;;3.50;3.20;;;17.40;99.90;;;;;;5070219;28;20423;-68
2023/07/05 02:42:59;;;;;;;3.47;3.17;;;17.40;99.90;;;;;;5070574;28;20418;-68
2023/07/05 02:45:26;;;;;;;4.00;2.90;;;17.40;99.90;;;;;;5071175;28;20177;-68
2023/07/05 02:47:52;;;;;;;4.70;3.60;;;17.40;99.90;;;;;;5069831;28;20416;-68
2023/07/05 02:50:17;;;;;;;3.40;3.10;;;17.40;99.90;;;;;;5071168;28;20435;-69
2023/07/05 02:52:44;;;;;;;3.60;2.63;;;17.40;99.90;;;;;;5069233;28;20656;-69
2023/07/05 02:55:10;;;;;;;5.63;2.83;;;17.40;99.90;;;;;;5070906;28;20185;-69
2023/07/05 02:57:36;;;;;;;4.57;2.60;;;17.40;99.90;;;;;;5070476;28;20415;-68
2023/07/05 03:00:04;;;;;;;3.43;3.13;;;17.40;99.90;;;;;;5070966;28;20439;-69
2023/07/05 03:02:30;;;;;;;3.50;3.20;;;17.40;99.90;;;;;;5070329;28;20177;-69
2023/07/05 03:04:55;;;;;;;3.60;2.97;;;17.40;99.90;;;;;;5070586;28;20438;-68
2023/07/05 03:07:21;;;;;;;4.93;3.00;;;17.40;99.90;;;;;;5070807;28;20181;-68
2023/07/05 03:09:48;;;;;;;3.80;3.00;;;17.40;99.90;;;;;;5089327;28;20211;-68
2023/07/05 03:12:17;;;;;;;3.23;2.23;;;17.50;99.90;;;;;;5090419;28;20188;-69
2023/07/05 03:14:43;;;;;;;3.77;3.07;;;17.40;99.90;;;;;;5090649;28;20448;-69
2023/07/05 03:17:08;;;;;;;2.90;2.70;;;17.50;99.90;;;;;;5090766;28;20468;-69
2023/07/05 03:19:35;;;;;;;4.13;2.80;;;17.50;99.90;;;;;;5090843;28;20189;-69
2023/07/05 03:22:00;;;;;;;2.93;2.70;;;17.50;99.90;;;;;;5090236;28;20200;-69
2023/07/05 03:24:26;;;;;;;2.73;2.43;;;17.50;99.90;;;;;;5090347;28;20411;-69
2023/07/05 03:26:52;;;;;;;4.73;2.80;;;17.50;99.90;;;;;;5090578;28;20684;-69
2023/07/05 03:29:18;;;;;;;2.87;2.57;;;17.50;99.90;;;;;;5090652;28;20192;-69
2023/07/05 03:31:44;;;;;;;2.43;2.23;;;17.50;99.90;;;;;;5090555;28;20461;-69
2023/07/05 03:34:09;;;;;;;3.70;2.50;;;17.50;99.90;;;;;;5089442;28;20223;-69
2023/07/05 03:36:35;;;;;;;3.37;2.57;;;17.50;99.90;;;;;;5090656;28;20212;-69
2023/07/05 03:39:01;;;;;;;2.80;2.60;;;17.50;99.90;;;;;;5090384;28;20191;-69
2023/07/05 03:41:27;;;;;;;3.20;2.67;;;17.50;99.90;;;;;;5090495;28;20200;-69
2023/07/05 03:43:56;;;;;;;3.47;2.53;;;17.50;99.90;;;;;;5089055;28;20813;-69
2023/07/05 03:46:22;;;;;;;2.60;2.40;;;17.50;99.90;;;;;;5090370;28;20603;-69
2023/07/05 03:48:48;;;;;;;3.23;2.50;;;17.50;99.90;;;;;;5087259;28;20415;-69
2023/07/05 03:51:17;;;;;;;2.63;2.43;;;17.60;99.90;;;;;;5090294;28;20495;-69
2023/07/05 03:53:43;;;;;;;2.30;2.10;;;17.50;99.90;;;;;;5089205;28;20716;-69
2023/07/05 03:56:10;;;;;;;5.67;2.60;;;17.50;99.90;;;;;;5090146;28;20553;-69
2023/07/05 03:58:36;;;;;;;3.93;2.90;;;17.40;99.90;;;;;;5089653;28;20455;-69
2023/07/05 04:01:09;;;;;;;2.80;1.73;;;17.40;99.90;;;;;;5090042;28;20957;-69
2023/07/05 04:03:35;;;;;;;1.97;1.50;;;17.30;99.90;;;;;;5088966;28;20800;-69
2023/07/05 04:06:02;;;;;;;2.07;1.60;;;17.20;99.90;;;;;;5090055;28;21045;-69
2023/07/05 04:08:28;;;;;;;2.80;1.90;;;17.00;99.90;;;;;;5089886;28;20433;-69
2023/07/05 04:10:54;;;;;;;3.40;1.87;;;16.90;99.90;;;;;;5089787;28;20813;-69
2023/07/05 04:13:19;;;;;;;2.20;1.67;;;16.70;99.90;;;;;;5088701;28;20425;-69
2023/07/05 04:15:45;;;;;;;2.00;1.80;;;16.60;99.90;;;;;;5089841;28;20465;-69
2023/07/05 04:18:11;;;;;;;2.47;1.93;;;16.50;99.90;;;;;;5089850;28;20255;-69
2023/07/05 04:20:37;;;;;;;2.00;1.43;;;16.40;99.90;;;;;;5089613;28;20192;-69
2023/07/05 04:23:03;;;;;;;2.27;1.60;;;16.30;99.90;;;;;;5088909;28;20583;-69
2023/07/05 04:25:28;;;;;;;2.13;1.93;;;16.30;99.90;;;;;;5088452;28;20411;-68
2023/07/05 04:27:54;;;;;;;2.60;1.80;;;16.20;99.90;;;;;;5089432;28;20430;-68
2023/07/05 04:30:20;;;;;;;2.23;1.60;;;16.20;99.90;;;;;;5089477;28;20206;-68
2023/07/05 04:32:45;;;;;;;2.43;1.90;;;16.10;99.90;;;;;;5088771;28;20689;-68
2023/07/05 04:35:11;;;;;;;4.50;1.90;;;16.10;99.90;;;;;;5089263;28;20483;-68
2023/07/05 04:37:37;;;;;;;4.37;2.07;;;16.00;99.90;;;;;;5089480;28;20173;-68
2023/07/05 04:40:03;;;;;;;2.80;1.83;;;15.90;99.90;;;;;;5089382;28;20283;-68
2023/07/05 04:42:29;;;;;;;1.97;1.50;;;15.80;99.90;;;;;;5088605;28;20301;-68
2023/07/05 04:44:55;;;;;;;4.80;2.87;;;15.80;99.90;;;;;;5088702;28;20417;-68
2023/07/05 04:47:20;;;;;;;4.33;2.20;;;15.70;99.90;;;;;;5087712;28;20414;-68
2023/07/05 04:49:47;;;;;;;2.77;2.17;;;15.70;99.90;;;;;;5089140;28;20275;-68
2023/07/05 04:52:12;;;;;;;3.50;2.00;;;15.70;99.90;;;;;;5084781;28;20194;-69
2023/07/05 04:54:38;;;;;;;3.43;2.37;;;15.70;99.90;;;;;;5081618;28;20427;-69
2023/07/05 04:57:05;;;;;;;3.00;2.00;;;15.70;99.90;;;;;;5084098;28;20258;-69
2023/07/05 04:59:30;;;;;;;3.67;2.23;;;15.70;99.90;;;;;;5088867;28;20173;-69
2023/07/05 05:01:56;;;;;;;3.10;2.20;;;15.60;99.90;;;;;;5079630;28;20458;-69
2023/07/05 05:04:22;;;;;;;4.37;3.17;;;15.50;99.90;;;;;;5087820;28;20544;-69
2023/07/05 05:06:47;;;;;;;3.03;2.17;;;15.60;99.90;;;;;;5089089;28;20553;-69
2023/07/05 05:09:13;;;;;;;4.03;2.33;;;15.60;99.90;;;;;;5088865;28;20736;-69
2023/07/05 05:11:39;;;;;;;3.50;2.37;;;15.60;99.90;;;;;;5087936;28;20200;-69
2023/07/05 05:14:04;;;;;;;2.77;2.40;;;15.70;99.90;;;;;;5088086;28;20279;-68
2023/07/05 05:16:30;;;;;;;3.73;2.90;;;15.80;99.90;;;;;;5088746;28;20218;-68
2023/07/05 05:18:56;;;;;;;3.40;2.50;;;15.80;99.90;;;;;;5088932;28;20226;-68
2023/07/05 05:21:21;;;;;;;4.33;2.70;;;15.70;99.90;;;;;;5088806;28;20200;-68
2023/07/05 05:23:47;;;;;;;3.10;2.73;;;15.60;99.90;;;;;;5087544;28;20629;-68
2023/07/05 05:26:13;;;;;;;3.40;2.70;;;15.70;99.90;;;;;;5086511;28;20703;-68
2023/07/05 05:28:38;;;;;;;5.00;2.90;;;15.80;99.90;;;;;;5084349;28;20687;-68
2023/07/05 05:31:08;;;;;;;3.67;2.37;;;15.90;99.90;;;;;;5087437;28;20208;-68
2023/07/05 05:33:34;;;;;;;3.83;2.87;;;15.90;99.90;;;;;;5087591;28;20184;-69
2023/07/05 05:36:01;;;;;;;4.60;3.00;;;16.10;99.90;;;;;;5088702;28;20463;-69
2023/07/05 05:38:27;;;;;;;3.67;3.23;;;16.20;99.90;;;;;;5088774;28;20772;-68
2023/07/05 05:41:04;;;;;;;4.90;2.97;;;16.30;99.90;;;;;;5083567;28;20427;-68
2023/07/05 05:43:30;;;;;;;3.97;2.50;;;16.30;99.90;;;;;;5070285;28;20543;-68
2023/07/05 05:45:56;;;;;;;5.07;2.97;;;16.30;99.90;;;;;;5073400;28;21120;-68
2023/07/05 05:48:22;;;;;;;4.70;2.90;;;16.40;99.90;;;;;;5080845;28;20422;-68
2023/07/05 05:50:48;;;;;;;3.67;2.90;;;16.40;99.90;;;;;;5087859;28;20422;-68
2023/07/05 05:53:14;;;;;;;5.40;3.00;;;16.40;99.90;;;;;;5087393;28;20188;-68
2023/07/05 05:55:40;;;;;;;5.50;2.70;;;16.30;99.90;;;;;;5086537;28;20467;-68
2023/07/05 05:58:06;;;;;;;2.90;2.40;;;16.30;99.90;;;;;;5084474;28;20260;-68
2023/07/05 06:00:32;;;;;;;3.50;2.73;;;16.20;99.90;;;;;;5088379;28;20456;-68
2023/07/05 06:02:58;;;;;;;4.23;2.33;;;16.30;99.90;;;;;;5087507;28;20409;-68
2023/07/05 06:05:24;;;;;;;3.40;2.50;;;16.30;99.90;;;;;;5088404;28;20426;-68
2023/07/05 06:07:50;;;;;;;7.10;2.93;;;16.20;99.90;;;;;;5088133;28;20188;-69
2023/07/05 06:10:16;;;;;;;3.27;2.67;;;16.20;99.90;;;;;;5087501;28;21021;-68
2023/07/05 06:12:42;;;;;;;4.73;3.40;;;16.10;99.90;;;;;;5090309;28;20184;-68
2023/07/05 06:15:12;;;;;;;3.23;2.57;;;16.10;99.90;;;;;;5091671;28;20189;-68
2023/07/05 06:17:38;;;;;;;3.90;3.17;;;16.00;99.90;;;;;;5092079;28;20184;-68
2023/07/05 06:20:08;;;;;;;3.27;2.80;;;16.00;99.90;;;;;;5092089;28;20430;-68
2023/07/05 06:22:35;;;;;;;5.60;2.80;;;16.10;99.90;;;;;;5087583;28;20426;-68
2023/07/05 06:25:01;;;;;;;3.00;2.40;;;16.10;99.90;;;;;;5085356;28;20415;-68
2023/07/05 06:27:27;;;;;;;3.93;2.53;;;16.30;99.90;;;;;;5091375;28;20444;-68
2023/07/05 06:29:53;;;;;;;4.97;2.50;;;16.30;99.90;;;;;;5085649;28;20434;-68
2023/07/05 06:32:18;;;;;;;3.87;2.40;;;16.20;99.90;;;;;;5085805;28;20790;-68
2023/07/05 06:34:44;;;;;;;4.37;2.97;;;16.10;99.90;;;;;;5090713;28;20180;-68
2023/07/05 06:37:10;;;;;;;3.60;2.13;;;16.00;99.90;;;;;;5090120;28;20295;-68
2023/07/05 06:39:37;;;;;;;3.10;2.47;;;15.90;99.90;;;;;;5091665;28;20265;-68
2023/07/05 06:42:03;;;;;;;5.93;2.87;;;15.90;99.90;;;;;;5090953;28;20426;-69
2023/07/05 06:44:29;;;;;;;5.57;2.50;;;15.90;99.90;;;;;;5091209;28;20419;-68
2023/07/05 06:46:55;;;;;;;3.80;2.40;;;15.90;99.90;;;;;;5091503;28;20494;-68
2023/07/05 06:49:21;;;;;;;2.90;2.40;;;15.90;99.90;;;;;;5091503;28;20242;-68
2023/07/05 06:51:46;;;;;;;2.90;2.10;;;15.80;99.90;;;;;;5090181;28;20208;-68
2023/07/05 06:54:12;;;;;;;4.73;2.83;;;15.80;99.90;;;;;;5080473;28;20184;-68
2023/07/05 06:56:38;;;;;;;2.90;2.00;;;15.90;99.90;;;;;;5080414;28;20630;-68
2023/07/05 06:59:04;;;;;;;3.20;2.40;;;15.90;99.90;;;;;;5071396;28;20514;-68
2023/07/05 07:01:29;;;;;;;2.40;2.20;;;15.90;99.90;;;;;;5080930;28;20287;-68
2023/07/05 07:03:55;;;;;;;6.40;2.40;;;15.90;99.90;;;;;;5078659;28;20201;-68
2023/07/05 07:06:21;;;;;;;5.30;2.80;;;15.90;99.90;;;;;;5076374;28;20205;-68
2023/07/05 07:08:48;;;;;;;2.93;2.10;;;15.90;99.90;;;;;;5080945;28;20220;-68
2023/07/05 07:11:14;;;;;;;3.10;2.33;;;16.00;99.90;;;;;;5091038;28;20426;-68
2023/07/05 07:13:40;;;;;;;3.90;2.60;;;16.20;99.90;;;;;;5089117;28;20410;-68
2023/07/05 07:16:10;;;;;;;4.33;2.67;;;16.30;99.90;;;;;;5089651;28;20450;-69
2023/07/05 07:18:37;;;;;;;3.57;2.83;;;16.40;99.90;;;;;;5089293;28;20410;-68
2023/07/05 07:21:05;;;;;;;3.33;2.33;;;16.40;99.90;;;;;;5090721;28;20530;-68
2023/07/05 07:23:31;;;;;;;3.30;2.27;;;16.40;99.90;;;;;;5089799;28;20414;-68
2023/07/05 07:26:03;;;;;;;3.00;2.00;;;16.40;99.90;;;;;;5090925;28;20857;-68
2023/07/05 07:28:28;;;;;;;6.20;2.33;;;16.30;99.90;;;;;;5090804;28;20177;-68
2023/07/05 07:30:54;;;;;;;3.90;2.23;;;16.30;99.90;;;;;;5089491;28;20795;-69
2023/07/05 07:33:20;;;;;;;6.33;2.97;;;16.20;99.90;;;;;;5089800;28;20176;-69
2023/07/05 07:35:48;;;;;;;8.73;3.00;;;16.20;99.90;;;;;;5090824;28;20783;-69
2023/07/05 07:38:14;;;;;;;3.30;2.23;;;16.20;99.90;;;;;;5090144;28;20214;-69
2023/07/05 07:40:40;;;;;;;4.63;2.50;;;16.20;99.90;;;;;;5090722;28;20429;-69
2023/07/05 07:43:07;;;;;;;3.17;2.10;;;16.20;99.90;;;;;;5089744;28;20415;-69
2023/07/05 07:45:33;;;;;;;2.53;1.90;;;16.20;99.90;;;;;;5090395;28;21175;-69
2023/07/05 07:47:59;;;;;;;5.63;2.30;;;16.20;99.90;;;;;;5090264;28;20500;-69
2023/07/05 07:50:25;;;;;;;3.40;2.57;;;16.10;99.90;;;;;;5089941;28;20450;-69
2023/07/05 07:52:52;;;;;;;3.30;2.00;;;16.10;99.90;;;;;;5089097;28;20180;-69
2023/07/05 07:55:17;;;;;;;3.10;1.73;;;16.10;99.90;;;;;;5089036;28;20418;-69
2023/07/05 07:57:43;;;;;;;3.63;1.80;;;16.00;99.90;;;;;;5090213;28;20406;-69
2023/07/05 08:00:10;;;;;;;3.03;1.70;;;16.00;99.90;;;;;;5088823;28;20338;-69
2023/07/05 08:02:39;;;;;;;2.83;1.70;;;15.90;99.90;;;;;;5089417;28;20180;-69
2023/07/05 08:05:15;;;;;;;4.43;2.17;;;15.90;99.90;;;;;;5089878;28;20519;-69
2023/07/05 08:07:41;;;;;;;6.37;2.33;;;15.90;99.90;;;;;;5089882;28;20934;-69
2023/07/05 08:10:08;;;;;;;2.50;1.40;;;15.90;99.90;;;;;;5090148;28;20426;-69
2023/07/05 08:12:34;;;;;;;2.57;1.73;;;15.90;99.90;;;;;;5089159;28;20414;-69
2023/07/05 08:15:00;;;;;;;2.80;1.93;;;16.00;99.90;;;;;;5088467;28;20467;-69
2023/07/05 08:17:28;;;;;;;2.40;1.97;;;16.00;99.90;;;;;;5089609;28;21038;-69
2023/07/05 08:19:54;;;;;;;2.03;1.53;;;16.00;99.90;;;;;;5089770;28;20179;-69
2023/07/05 08:22:19;;;;;;;1.97;1.77;;;16.00;99.90;;;;;;5088914;28;20414;-69
2023/07/05 08:24:45;;;;;;;5.90;2.10;;;16.00;99.90;;;;;;5089488;28;20274;-69
2023/07/05 08:27:11;;;;;;;5.67;2.13;;;16.00;99.90;;;;;;5089681;28;20200;-69
2023/07/05 08:29:37;;;;;;;4.60;1.80;;;16.20;99.90;;;;;;5088813;28;20188;-69
2023/07/05 08:32:03;;;;;;;4.33;2.03;;;16.30;99.90;;;;;;5088724;28;20463;-69
2023/07/05 08:34:30;;;;;;;5.23;2.10;;;16.40;99.90;;;;;;5089370;28;20575;-69
2023/07/05 08:36:55;;;;;;;3.30;2.00;;;16.40;99.90;;;;;;5089163;28;20491;-69
2023/07/05 08:39:22;;;;;;;5.97;1.83;;;16.40;99.90;;;;;;5089500;28;20418;-70
2023/07/05 08:42:00;;;;;;;2.23;1.73;;;16.30;99.90;;;;;;5089305;28;20192;-69
2023/07/05 08:44:32;;;;;;;2.33;1.83;;;16.30;99.90;;;;;;5088890;28;20405;-69
2023/07/05 08:47:02;;;;;;;2.53;1.50;;;16.30;99.90;;;;;;5089305;28;20410;-69
2023/07/05 08:49:45;;;;;;;5.20;1.77;;;16.20;99.90;;;;;;5089401;28;20435;-69
2023/07/05 08:52:26;;;;;;;4.80;2.30;;;16.20;99.90;;;;;;5088536;28;20426;-69
2023/07/05 08:54:57;;;;;;;4.23;2.73;;;16.10;99.90;;;;;;5088931;28;20931;-69
2023/07/05 08:57:50;;;;;;;2.27;1.77;;;16.10;99.90;;;;;;5087521;28;20550;-69
2023/07/05 09:00:32;;;;;;;2.00;1.80;;;16.00;99.90;;;;;;5087315;28;20994;-69
2023/07/05 09:02:58;;;;;;;2.07;1.70;;;16.00;99.90;;;;;;5088198;28;20406;-69
2023/07/05 09:05:35;;;;;;;6.13;1.60;;;16.00;99.90;;;;;;5088871;28;20422;-69
2023/07/05 09:08:20;;;;;;;1.37;1.20;;;16.00;99.90;;;;;;5088848;28;20178;-69
2023/07/05 09:10:55;;;;;;;2.40;1.40;;;16.00;99.90;;;;;;5089077;28;20434;-69
2023/07/05 09:13:40;;;;;;;4.40;2.00;;;16.00;99.90;;;;;;5087865;28;20559;-69
2023/07/05 09:16:06;;;;;;;1.83;1.47;;;16.00;99.90;;;;;;5089144;28;21060;-69
2023/07/05 09:19:00;;;;;;;2.60;1.40;;;15.90;99.90;;;;;;5088793;28;20411;-69
2023/07/05 09:21:29;;;;;;;7.73;2.00;;;15.90;99.90;;;;;;5088832;28;20196;-69
2023/07/05 09:24:18;;;;;;;5.77;1.90;;;15.90;99.90;;;;;;5087884;28;20418;-69
2023/07/05 09:26:51;;;;;;;4.03;1.73;;;16.00;99.90;;;;;;5088829;28;20451;-69
2023/07/05 09:29:29;;;;;;;5.63;2.20;;;16.00;99.90;;;;;;5088750;28;20944;-69
2023/07/05 09:31:55;;;;;;;6.20;2.13;;;16.10;99.90;;;;;;5088669;28;20445;-69
2023/07/05 09:34:32;;;;;;;3.03;1.50;;;16.20;99.90;;;;;;5088040;28;20919;-69
2023/07/05 09:37:00;;;;;;;4.13;1.77;;;16.30;99.90;;;;;;5088842;28;20540;-69
2023/07/05 09:39:55;;;;;;;2.70;1.83;;;16.40;99.90;;;;;;5088675;28;20411;-69
2023/07/05 09:42:30;;;;;;;3.90;1.53;;;16.70;99.90;;;;;;5092150;28;20414;-69
2023/07/05 09:44:56;;;;;;;2.93;2.10;;;17.00;99.90;;;;;;5092223;28;20416;-69
2023/07/05 09:47:24;;;;;;;5.63;1.83;;;17.40;99.90;;;;;;5092596;28;20497;-69
2023/07/05 09:49:50;;;;;;;5.27;1.90;;;17.60;99.90;;;;;;5092682;28;20184;-69
2023/07/05 09:52:21;;;;;;;7.07;2.17;;;17.60;99.90;;;;;;5091777;28;20421;-69
2023/07/05 09:54:52;;;;;;;4.20;1.73;;;17.80;99.90;;;;;;5092385;28;20172;-69
2023/07/05 09:57:25;;;;;;;5.20;1.57;;;17.80;99.90;;;;;;5089474;28;20479;-69
2023/07/05 09:59:54;;;;;;;3.07;1.87;;;17.90;99.90;;;;;;5090971;28;20756;-69
2023/07/05 10:02:31;;;;;;;3.30;1.93;;;18.00;99.90;;;;;;5091653;28;20972;-69
2023/07/05 10:05:13;;;;;;;4.97;2.33;;;18.10;99.90;;;;;;5092024;28;20965;-69
2023/07/05 10:07:52;;;;;;;6.57;2.47;;;18.20;99.90;;;;;;5092324;28;20410;-69
2023/07/05 10:10:18;;;;;;;5.60;2.10;;;18.30;99.90;;;;;;5092441;28;21023;-69
2023/07/05 10:12:44;;;;;;;7.80;1.80;;;18.30;99.90;;;;;;5091364;28;20446;-69
2023/07/05 10:15:21;;;;;;;6.60;2.10;;;18.20;99.90;;;;;;5092148;28;20180;-69
2023/07/05 10:17:49;;;;;;;8.63;1.80;;;18.30;99.90;;;;;;5092006;28;20641;-69
2023/07/05 10:20:39;;;;;;;4.50;2.10;;;18.20;99.90;;;;;;5092071;28;20938;-69
2023/07/05 10:23:14;;;;;;;6.70;1.70;;;18.10;99.90;;;;;;5087214;28;20406;-69
2023/07/05 10:25:41;;;;;;;3.73;1.97;;;18.00;99.90;;;;;;5092077;28;20783;-69
2023/07/05 10:28:12;;;;;;;3.47;2.13;;;17.90;99.90;;;;;;5091737;28;20453;-69
2023/07/05 10:30:56;;;;;;;4.77;2.03;;;17.80;99.90;;;;;;5091889;28;20445;-69
2023/07/05 10:33:30;;;;;;;2.60;2.17;;;17.70;99.90;;;;;;5090754;28;20472;-69
2023/07/05 10:36:02;;;;;;;1.70;1.47;;;17.70;99.90;;;;;;5085883;28;20458;-69
2023/07/05 10:38:33;;;;;;;3.50;1.90;;;17.70;99.90;;;;;;5073225;28;20442;-69
2023/07/05 10:41:18;;;;;;;5.40;2.00;;;17.70;99.90;;;;;;5085599;28;20503;-69
2023/07/05 10:43:52;;;;;;;4.73;3.40;;;17.70;99.90;;;;;;5079524;28;20423;-69
2023/07/05 10:46:24;;;;;;;6.80;2.47;;;17.80;99.90;;;;;;5081735;28;20433;-69
2023/07/05 10:48:50;;;;;;;6.40;2.77;;;18.00;99.90;;;;;;5086782;28;20414;-69
2023/07/05 10:51:20;;;;;;;8.20;2.13;;;18.20;99.90;;;;;;5083093;28;20942;-69
2023/07/05 10:54:00;;;;;;;3.10;1.80;;;18.50;99.90;;;;;;5081083;28;20434;-69
2023/07/05 10:56:31;;;;;;;4.50;1.80;;;18.70;99.90;;;;;;5080043;28;20467;-69
2023/07/05 10:59:16;;;;;;;3.80;2.10;;;18.80;99.90;;;;;;5075259;28;21127;-69
2023/07/05 11:01:49;;;;;;;3.40;1.87;;;18.90;99.90;;;;;;5084402;28;20471;-69
2023/07/05 11:04:20;;;;;;;4.73;2.00;;;18.90;99.90;;;;;;5081947;28;20895;-69
2023/07/05 11:06:48;;;;;;;4.70;1.67;;;18.80;99.90;;;;;;5085000;28;20449;-69
2023/07/05 11:09:14;;;;;;;5.43;2.47;;;18.70;99.90;;;;;;5089610;28;20426;-69
2023/07/05 11:11:44;;;;;;;4.63;2.10;;;18.70;99.90;;;;;;5075535;28;20458;-69
2023/07/05 11:14:12;;;;;;;7.20;2.30;;;18.60;99.90;;;;;;5086375;28;20271;-69
2023/07/05 11:16:40;;;;;;;14.40;4.23;;;18.60;99.90;;;;;;5080962;28;20462;-69
2023/07/05 11:19:14;;;;;;;2.80;2.10;;;18.50;99.90;;;;;;5085485;28;21242;-69
2023/07/05 11:21:50;;;;;;;4.93;2.27;;;18.50;99.90;;;;;;5088336;28;20827;-69
2023/07/05 11:24:38;;;;;;;8.20;2.33;;;18.50;99.90;;;;;;5080464;28;21258;-69
2023/07/05 11:27:33;;;;;;;8.33;2.80;;;18.50;99.30;;;;;;5086999;28;20848;-69
2023/07/05 11:29:59;;;;;;;3.43;1.83;;;18.50;99.90;;;;;;5074674;28;20759;-69
2023/07/05 11:33:03;;;;;;;5.60;2.30;;;18.50;99.40;;;;;;5081425;28;20411;-69
2023/07/05 11:35:41;;;;;;;6.00;2.50;;;18.60;99.90;;;;;;5084131;28;20212;-69
2023/07/05 11:38:07;;;;;;;5.10;2.07;;;18.80;99.90;;;;;;5087443;28;20434;-69
2023/07/05 11:40:56;;;;;;;5.53;1.97;;;18.90;99.70;;;;;;5082446;28;20430;-69
2023/07/05 11:43:26;;;;;;;9.80;2.50;;;18.90;99.00;;;;;;5085359;28;20192;-69
2023/07/05 11:45:52;;;;;;;3.23;1.90;;;18.90;98.70;;;;;;5082060;28;20454;-69
2023/07/05 11:48:38;;;;;;;14.73;3.23;;;19.00;98.70;;;;;;5084239;28;20847;-69
2023/07/05 11:51:10;;;;;;;2.90;1.90;;;19.10;97.70;;;;;;5080874;28;20433;-69
2023/07/05 11:53:37;;;;;;;5.20;1.87;;;19.20;97.60;;;;;;5082213;28;20442;-69
2023/07/05 11:56:04;;;;;;;4.23;2.07;;;19.40;97.70;;;;;;5086286;28;20454;-69
2023/07/05 11:58:35;;;;;;;5.50;2.07;;;19.40;97.20;;;;;;5079616;28;20446;-69
2023/07/05 12:01:03;;;;;;;4.63;1.90;;;19.30;97.20;;;;;;5083573;28;20493;-67
2023/07/05 12:03:34;;;;;;;4.87;2.03;;;19.40;98.10;;;;;;5077852;28;20446;-68
2023/07/05 12:06:14;;;;;;;4.50;1.93;;;19.50;97.30;;;;;;5084225;28;20418;-69
2023/07/05 12:08:49;;;;;;;4.00;1.80;;;19.80;97.10;;;;;;5085712;28;20423;-69
2023/07/05 12:11:44;;;;;;;5.40;2.07;;;19.90;95.90;;;;;;5084790;28;20449;-69
2023/07/05 12:14:16;;;;;;;3.33;1.80;;;19.90;95.60;;;;;;5078561;28;20420;-69
2023/07/05 12:16:43;;;;;;;3.83;1.97;;;19.80;95.50;;;;;;5078454;28;20470;-69
2023/07/05 12:19:16;;;;;;;3.60;1.60;;;19.80;96.10;;;;;;5083855;28;20414;-69
2023/07/05 12:21:50;;;;;;;3.87;1.97;;;19.90;95.40;;;;;;5085195;28;20971;-69
2023/07/05 12:24:16;;;;;;;6.00;1.63;;;20.00;94.80;;;;;;5080937;28;20916;-69
2023/07/05 12:26:43;;;;;;;2.50;1.80;;;19.90;94.70;;;;;;5083142;28;20577;-69
2023/07/05 12:29:28;;;;;;;3.10;1.90;;;19.90;95.30;;;;;;5080474;28;20419;-69
2023/07/05 12:32:07;;;;;;;2.73;2.10;;;19.80;94.70;;;;;;5090631;28;20524;-69
2023/07/05 12:34:33;;;;;;;3.70;1.43;;;19.70;94.10;;;;;;5084011;28;20419;-69
2023/07/05 12:37:00;;;;;;;4.73;1.80;;;19.70;94.50;;;;;;5081988;28;20525;-69
2023/07/05 12:39:25;;;;;;;2.83;1.40;;;19.80;94.20;;;;;;5084049;28;20451;-69
2023/07/05 12:42:09;;;;;;;7.03;1.90;;;20.00;94.30;;;;;;5082543;28;20855;-69
2023/07/05 12:44:35;;;;;;;6.90;2.53;;;20.10;92.60;;;;;;5082747;28;20272;-69
2023/07/05 12:47:18;;;;;;;7.27;1.40;;;20.30;93.90;;;;;;5080291;28;20509;-69
2023/07/05 12:49:44;;;;;;;4.10;1.73;;;20.30;92.40;;;;;;5081980;28;20461;-69
2023/07/05 12:52:18;;;;;;;6.30;1.40;;;20.30;93.40;;;;;;5086928;28;20495;-68
2023/07/05 12:54:44;;;;;;;3.63;1.67;;;20.30;92.00;;;;;;5080349;28;20491;-69
2023/07/05 12:57:29;;;;;;;5.20;1.47;;;20.20;92.40;;;;;;5084486;28;20549;-69
2023/07/05 12:59:55;;;;;;;4.90;2.10;;;20.00;93.30;;;;;;5071090;28;20636;-69
2023/07/05 13:02:29;;;;;;;5.40;1.63;;;20.10;95.50;;;;;;5079778;28;20419;-69